Terminal Aerodrome Forecast
Issued by NWS Cleveland, OH

Home | Current Version | Previous Version | Graphics & Text | Print | Product List | Glossary On
Versions: 1 2 3 4 5 6 7 8 9 10 11 12 13 14 15 16
000
FTUS41 KCLE 012113 AAA
TAFTOL
TAF AMD
KTOL 012113Z 0121/0218 24015G22KT P6SM OVC020
      TEMPO 0121/0124 OVC018
     FM020000 25012KT P6SM BKN022 OVC035=

USA.gov is the U.S. government's official web portal to all federal, state and local government web resources and services.